Terminal Aerodrome Forecast
Issued by NWS

Home | Current Version | Previous Version | Text Only | Print | Product List | Glossary On
Versions: 1 2 3 4 5 6 7 8 9 10 11 12 13 14 15 16 17 18 19
046
FTUS45 KTFX 131735
TAFCTB
TAF
KCTB 131735Z 1318/1418 26025G38KT P6SM BKN120
     FM140200 27015G25KT P6SM BKN120
     FM141500 26022G35KT P6SM BKN120=

USA.gov is the U.S. government's official web portal to all federal, state and local government web resources and services.